sensor_id;sensor_type;location;lat;lon;timestamp;P1;durP1;ratioP1;P2;durP2;ratioP2
5379;SDS011;2713;42.680;23.310;2024-01-15T00:01:49;54.55;;;33.60;;
5379;SDS011;2713;42.680;23.310;2024-01-15T00:04:16;52.92;;;33.15;;
5379;SDS011;2713;42.680;23.310;2024-01-15T00:06:43;59.97;;;36.60;;
5379;SDS011;2713;42.680;23.310;2024-01-15T00:09:09;60.55;;;38.75;;
5379;SDS011;2713;42.680;23.310;2024-01-15T00:11:36;65.30;;;38.58;;
5379;SDS011;2713;42.680;23.310;2024-01-15T00:14:04;68.18;;;40.88;;
5379;SDS011;2713;42.680;23.310;2024-01-15T00:16:31;70.18;;;37.85;;
5379;SDS011;2713;42.680;23.310;2024-01-15T00:18:58;72.13;;;40.50;;
5379;SDS011;2713;42.680;23.310;2024-01-15T00:21:24;72.53;;;40.67;;
5379;SDS011;2713;42.680;23.310;2024-01-15T00:23:52;63.28;;;37.30;;
5379;SDS011;2713;42.680;23.310;2024-01-15T00:26:19;58.42;;;34.28;;
5379;SDS011;2713;42.680;23.310;2024-01-15T00:28:46;68.00;;;40.17;;
5379;SDS011;2713;42.680;23.310;2024-01-15T00:31:14;69.93;;;41.42;;
5379;SDS011;2713;42.680;23.310;2024-01-15T00:33:42;68.50;;;39.22;;
5379;SDS011;2713;42.680;23.310;2024-01-15T00:36:09;72.18;;;41.10;;
5379;SDS011;2713;42.680;23.310;2024-01-15T00:38:36;73.20;;;40.33;;
5379;SDS011;2713;42.680;23.310;2024-01-15T00:41:03;71.90;;;39.55;;
5379;SDS011;2713;42.680;23.310;2024-01-15T00:43:30;62.20;;;39.30;;
5379;SDS011;2713;42.680;23.310;2024-01-15T00:45:57;62.35;;;38.30;;
5379;SDS011;2713;42.680;23.310;2024-01-15T00:48:25;67.13;;;40.63;;
5379;SDS011;2713;42.680;23.310;2024-01-15T00:50:51;67.15;;;39.70;;
5379;SDS011;2713;42.680;23.310;2024-01-15T00:53:19;64.93;;;36.50;;
5379;SDS011;2713;42.680;23.310;2024-01-15T00:55:47;65.63;;;35.38;;
5379;SDS011;2713;42.680;23.310;2024-01-15T00:58:14;63.22;;;36.60;;
5379;SDS011;2713;42.680;23.310;2024-01-15T01:00:41;64.90;;;39.25;;
5379;SDS011;2713;42.680;23.310;2024-01-15T01:03:07;65.70;;;37.65;;
5379;SDS011;2713;42.680;23.310;2024-01-15T01:05:36;57.55;;;32.42;;
5379;SDS011;2713;42.680;23.310;2024-01-15T01:08:03;57.85;;;32.55;;
5379;SDS011;2713;42.680;23.310;2024-01-15T01:10:30;57.00;;;34.95;;
5379;SDS011;2713;42.680;23.310;2024-01-15T01:12:57;67.72;;;37.00;;
5379;SDS011;2713;42.680;23.310;2024-01-15T01:15:23;57.92;;;35.78;;
5379;SDS011;2713;42.680;23.310;2024-01-15T01:17:50;58.55;;;33.22;;
5379;SDS011;2713;42.680;23.310;2024-01-15T01:20:17;55.85;;;31.98;;
5379;SDS011;2713;42.680;23.310;2024-01-15T01:22:45;49.97;;;29.55;;
5379;SDS011;2713;42.680;23.310;2024-01-15T01:25:12;44.97;;;27.90;;
5379;SDS011;2713;42.680;23.310;2024-01-15T01:27:39;48.17;;;29.77;;
5379;SDS011;2713;42.680;23.310;2024-01-15T01:30:07;54.25;;;30.58;;
5379;SDS011;2713;42.680;23.310;2024-01-15T01:32:34;53.92;;;31.45;;
5379;SDS011;2713;42.680;23.310;2024-01-15T01:35:00;49.88;;;29.60;;
5379;SDS011;2713;42.680;23.310;2024-01-15T01:37:27;47.78;;;28.95;;
5379;SDS011;2713;42.680;23.310;2024-01-15T01:39:55;45.63;;;27.45;;
5379;SDS011;2713;42.680;23.310;2024-01-15T01:42:22;47.30;;;27.45;;
5379;SDS011;2713;42.680;23.310;2024-01-15T01:44:49;39.70;;;24.20;;
5379;SDS011;2713;42.680;23.310;2024-01-15T01:47:16;36.10;;;24.15;;
5379;SDS011;2713;42.680;23.310;2024-01-15T01:49:43;39.88;;;23.58;;
5379;SDS011;2713;42.680;23.310;2024-01-15T01:52:09;37.05;;;24.08;;
5379;SDS011;2713;42.680;23.310;2024-01-15T01:54:37;38.78;;;24.08;;
5379;SDS011;2713;42.680;23.310;2024-01-15T01:57:07;38.38;;;22.98;;
5379;SDS011;2713;42.680;23.310;2024-01-15T01:59:35;41.60;;;23.63;;
5379;SDS011;2713;42.680;23.310;2024-01-15T02:02:02;38.92;;;24.20;;
5379;SDS011;2713;42.680;23.310;2024-01-15T02:04:30;39.58;;;23.63;;
5379;SDS011;2713;42.680;23.310;2024-01-15T02:06:58;39.10;;;24.33;;
5379;SDS011;2713;42.680;23.310;2024-01-15T02:09:25;36.65;;;22.92;;
5379;SDS011;2713;42.680;23.310;2024-01-15T02:11:52;36.22;;;22.30;;
5379;SDS011;2713;42.680;23.310;2024-01-15T02:14:20;38.38;;;22.40;;
5379;SDS011;2713;42.680;23.310;2024-01-15T02:16:48;36.38;;;21.85;;
5379;SDS011;2713;42.680;23.310;2024-01-15T02:19:15;42.10;;;25.25;;
5379;SDS011;2713;42.680;23.310;2024-01-15T02:21:42;35.85;;;22.17;;
5379;SDS011;2713;42.680;23.310;2024-01-15T02:24:10;38.63;;;22.85;;
5379;SDS011;2713;42.680;23.310;2024-01-15T02:26:37;38.80;;;23.15;;
5379;SDS011;2713;42.680;23.310;2024-01-15T02:29:04;51.03;;;30.50;;
5379;SDS011;2713;42.680;23.310;2024-01-15T02:34:08;52.20;;;31.38;;
5379;SDS011;2713;42.680;23.310;2024-01-15T02:36:35;45.70;;;27.63;;
5379;SDS011;2713;42.680;23.310;2024-01-15T02:39:02;41.22;;;25.35;;
5379;SDS011;2713;42.680;23.310;2024-01-15T02:41:30;42.13;;;24.85;;
5379;SDS011;2713;42.680;23.310;2024-01-15T02:43:56;41.67;;;24.38;;
5379;SDS011;2713;42.680;23.310;2024-01-15T02:46:23;37.78;;;23.27;;
5379;SDS011;2713;42.680;23.310;2024-01-15T02:48:50;37.55;;;22.75;;
5379;SDS011;2713;42.680;23.310;2024-01-15T02:51:17;41.05;;;25.85;;
5379;SDS011;2713;42.680;23.310;2024-01-15T02:53:44;39.70;;;24.85;;
5379;SDS011;2713;42.680;23.310;2024-01-15T02:56:11;39.10;;;24.33;;
5379;SDS011;2713;42.680;23.310;2024-01-15T02:58:39;36.58;;;23.10;;
5379;SDS011;2713;42.680;23.310;2024-01-15T03:01:06;38.30;;;22.88;;
5379;SDS011;2713;42.680;23.310;2024-01-15T03:03:33;38.25;;;25.08;;
5379;SDS011;2713;42.680;23.310;2024-01-15T03:06:00;41.60;;;25.75;;
5379;SDS011;2713;42.680;23.310;2024-01-15T03:08:27;42.88;;;26.20;;
5379;SDS011;2713;42.680;23.310;2024-01-15T03:10:55;38.28;;;24.98;;
5379;SDS011;2713;42.680;23.310;2024-01-15T03:13:21;39.45;;;24.77;;
5379;SDS011;2713;42.680;23.310;2024-01-15T03:15:50;43.30;;;26.70;;
5379;SDS011;2713;42.680;23.310;2024-01-15T03:18:16;43.28;;;27.52;;
5379;SDS011;2713;42.680;23.310;2024-01-15T03:20:43;47.28;;;26.38;;
5379;SDS011;2713;42.680;23.310;2024-01-15T03:23:10;43.95;;;26.40;;
5379;SDS011;2713;42.680;23.310;2024-01-15T03:25:36;48.35;;;29.80;;
5379;SDS011;2713;42.680;23.310;2024-01-15T03:28:03;55.15;;;32.65;;
5379;SDS011;2713;42.680;23.310;2024-01-15T03:30:31;56.97;;;34.17;;
5379;SDS011;2713;42.680;23.310;2024-01-15T03:32:59;62.67;;;35.13;;
5379;SDS011;2713;42.680;23.310;2024-01-15T03:35:26;66.15;;;38.90;;
5379;SDS011;2713;42.680;23.310;2024-01-15T03:37:54;76.72;;;43.35;;
5379;SDS011;2713;42.680;23.310;2024-01-15T03:40:21;78.13;;;43.42;;
5379;SDS011;2713;42.680;23.310;2024-01-15T03:42:48;68.55;;;42.35;;
5379;SDS011;2713;42.680;23.310;2024-01-15T03:45:15;87.00;;;44.33;;
5379;SDS011;2713;42.680;23.310;2024-01-15T03:47:41;81.88;;;43.45;;
5379;SDS011;2713;42.680;23.310;2024-01-15T03:50:10;74.63;;;42.08;;
5379;SDS011;2713;42.680;23.310;2024-01-15T03:52:37;73.28;;;41.25;;
5379;SDS011;2713;42.680;23.310;2024-01-15T03:55:04;71.97;;;41.13;;
5379;SDS011;2713;42.680;23.310;2024-01-15T03:57:31;77.85;;;42.03;;
5379;SDS011;2713;42.680;23.310;2024-01-15T03:59:58;77.65;;;43.47;;
5379;SDS011;2713;42.680;23.310;2024-01-15T04:02:25;72.15;;;41.05;;
5379;SDS011;2713;42.680;23.310;2024-01-15T04:04:51;66.72;;;38.42;;
5379;SDS011;2713;42.680;23.310;2024-01-15T04:07:20;64.13;;;36.05;;
5379;SDS011;2713;42.680;23.310;2024-01-15T04:09:46;58.42;;;33.70;;
5379;SDS011;2713;42.680;23.310;2024-01-15T04:12:13;58.53;;;32.67;;
5379;SDS011;2713;42.680;23.310;2024-01-15T04:14:40;58.95;;;33.97;;
5379;SDS011;2713;42.680;23.310;2024-01-15T04:17:07;55.20;;;32.20;;
5379;SDS011;2713;42.680;23.310;2024-01-15T04:19:34;58.85;;;32.00;;
5379;SDS011;2713;42.680;23.310;2024-01-15T04:22:00;60.35;;;33.35;;
5379;SDS011;2713;42.680;23.310;2024-01-15T04:24:28;54.05;;;32.00;;
5379;SDS011;2713;42.680;23.310;2024-01-15T04:26:57;55.53;;;33.47;;
5379;SDS011;2713;42.680;23.310;2024-01-15T04:29:24;56.03;;;32.88;;
5379;SDS011;2713;42.680;23.310;2024-01-15T04:34:36;57.00;;;35.33;;
5379;SDS011;2713;42.680;23.310;2024-01-15T04:37:03;72.20;;;36.95;;
5379;SDS011;2713;42.680;23.310;2024-01-15T04:39:31;60.42;;;38.83;;
5379;SDS011;2713;42.680;23.310;2024-01-15T04:41:58;65.78;;;36.97;;
5379;SDS011;2713;42.680;23.310;2024-01-15T04:44:25;65.72;;;37.28;;
5379;SDS011;2713;42.680;23.310;2024-01-15T04:46:51;63.45;;;37.83;;
5379;SDS011;2713;42.680;23.310;2024-01-15T04:49:18;60.38;;;36.00;;
5379;SDS011;2713;42.680;23.310;2024-01-15T04:51:45;59.70;;;36.35;;
5379;SDS011;2713;42.680;23.310;2024-01-15T04:54:12;62.65;;;36.03;;
5379;SDS011;2713;42.680;23.310;2024-01-15T04:56:44;62.50;;;37.85;;
5379;SDS011;2713;42.680;23.310;2024-01-15T04:59:11;74.63;;;40.97;;
5379;SDS011;2713;42.680;23.310;2024-01-15T05:01:37;66.82;;;39.78;;
5379;SDS011;2713;42.680;23.310;2024-01-15T05:04:04;61.90;;;37.90;;
5379;SDS011;2713;42.680;23.310;2024-01-15T05:06:31;61.63;;;37.35;;
5379;SDS011;2713;42.680;23.310;2024-01-15T05:08:58;71.78;;;39.85;;
5379;SDS011;2713;42.680;23.310;2024-01-15T05:11:24;69.18;;;39.30;;
5379;SDS011;2713;42.680;23.310;2024-01-15T05:13:52;62.65;;;36.10;;
5379;SDS011;2713;42.680;23.310;2024-01-15T05:16:19;70.72;;;38.03;;
5379;SDS011;2713;42.680;23.310;2024-01-15T05:18:46;60.22;;;35.58;;
5379;SDS011;2713;42.680;23.310;2024-01-15T05:21:13;62.28;;;37.30;;
5379;SDS011;2713;42.680;23.310;2024-01-15T05:23:40;68.60;;;37.97;;
5379;SDS011;2713;42.680;23.310;2024-01-15T05:26:07;75.10;;;42.00;;
5379;SDS011;2713;42.680;23.310;2024-01-15T05:28:34;76.78;;;42.92;;
5379;SDS011;2713;42.680;23.310;2024-01-15T05:31:02;89.03;;;48.22;;
5379;SDS011;2713;42.680;23.310;2024-01-15T05:36:15;91.82;;;49.22;;
5379;SDS011;2713;42.680;23.310;2024-01-15T05:38:42;91.05;;;48.05;;
5379;SDS011;2713;42.680;23.310;2024-01-15T05:41:09;80.55;;;47.03;;
5379;SDS011;2713;42.680;23.310;2024-01-15T05:43:36;86.75;;;46.97;;
5379;SDS011;2713;42.680;23.310;2024-01-15T05:46:04;103.03;;;52.28;;
5379;SDS011;2713;42.680;23.310;2024-01-15T05:48:31;87.25;;;48.25;;
5379;SDS011;2713;42.680;23.310;2024-01-15T05:50:58;95.30;;;51.17;;
5379;SDS011;2713;42.680;23.310;2024-01-15T05:53:25;94.43;;;51.20;;
5379;SDS011;2713;42.680;23.310;2024-01-15T05:55:51;96.18;;;51.78;;
5379;SDS011;2713;42.680;23.310;2024-01-15T05:58:19;86.97;;;48.20;;
5379;SDS011;2713;42.680;23.310;2024-01-15T06:00:46;86.18;;;46.40;;
5379;SDS011;2713;42.680;23.310;2024-01-15T06:03:16;94.50;;;49.70;;
5379;SDS011;2713;42.680;23.310;2024-01-15T06:05:43;102.07;;;51.00;;
5379;SDS011;2713;42.680;23.310;2024-01-15T06:08:10;101.40;;;50.00;;
5379;SDS011;2713;42.680;23.310;2024-01-15T06:10:36;89.45;;;49.13;;
5379;SDS011;2713;42.680;23.310;2024-01-15T06:13:03;96.32;;;50.50;;
5379;SDS011;2713;42.680;23.310;2024-01-15T06:15:30;98.53;;;51.97;;
5379;SDS011;2713;42.680;23.310;2024-01-15T06:17:57;95.20;;;50.88;;
5379;SDS011;2713;42.680;23.310;2024-01-15T06:20:25;88.45;;;51.03;;
5379;SDS011;2713;42.680;23.310;2024-01-15T06:22:52;107.95;;;53.25;;
5379;SDS011;2713;42.680;23.310;2024-01-15T06:25:19;89.13;;;51.38;;
5379;SDS011;2713;42.680;23.310;2024-01-15T06:27:45;99.47;;;53.28;;
5379;SDS011;2713;42.680;23.310;2024-01-15T06:30:12;100.13;;;54.20;;
5379;SDS011;2713;42.680;23.310;2024-01-15T06:32:40;100.65;;;54.33;;
5379;SDS011;2713;42.680;23.310;2024-01-15T06:35:07;99.70;;;55.33;;
5379;SDS011;2713;42.680;23.310;2024-01-15T06:37:37;111.88;;;56.13;;
5379;SDS011;2713;42.680;23.310;2024-01-15T06:40:04;97.28;;;54.45;;
5379;SDS011;2713;42.680;23.310;2024-01-15T06:42:31;110.80;;;56.22;;
5379;SDS011;2713;42.680;23.310;2024-01-15T06:44:58;99.20;;;54.78;;
5379;SDS011;2713;42.680;23.310;2024-01-15T06:47:25;106.10;;;56.50;;
5379;SDS011;2713;42.680;23.310;2024-01-15T06:49:52;98.13;;;53.63;;
5379;SDS011;2713;42.680;23.310;2024-01-15T06:52:19;102.03;;;57.55;;
5379;SDS011;2713;42.680;23.310;2024-01-15T06:54:47;101.15;;;56.40;;
5379;SDS011;2713;42.680;23.310;2024-01-15T06:57:14;107.55;;;56.80;;
5379;SDS011;2713;42.680;23.310;2024-01-15T06:59:41;98.72;;;53.35;;
5379;SDS011;2713;42.680;23.310;2024-01-15T07:02:07;96.55;;;55.38;;
5379;SDS011;2713;42.680;23.310;2024-01-15T07:04:34;96.53;;;53.35;;
5379;SDS011;2713;42.680;23.310;2024-01-15T07:07:01;97.65;;;54.72;;
5379;SDS011;2713;42.680;23.310;2024-01-15T07:09:28;92.05;;;52.00;;
5379;SDS011;2713;42.680;23.310;2024-01-15T07:11:56;111.25;;;55.60;;
5379;SDS011;2713;42.680;23.310;2024-01-15T07:14:23;99.72;;;53.50;;
5379;SDS011;2713;42.680;23.310;2024-01-15T07:16:50;97.93;;;53.90;;
5379;SDS011;2713;42.680;23.310;2024-01-15T07:19:16;90.53;;;51.55;;
5379;SDS011;2713;42.680;23.310;2024-01-15T07:21:43;85.75;;;52.33;;
5379;SDS011;2713;42.680;23.310;2024-01-15T07:24:10;90.65;;;51.75;;
5379;SDS011;2713;42.680;23.310;2024-01-15T07:26:37;84.43;;;49.65;;
5379;SDS011;2713;42.680;23.310;2024-01-15T07:29:05;97.90;;;52.40;;
5379;SDS011;2713;42.680;23.310;2024-01-15T07:31:32;95.10;;;52.53;;
5379;SDS011;2713;42.680;23.310;2024-01-15T07:33:58;89.85;;;49.92;;
5379;SDS011;2713;42.680;23.310;2024-01-15T07:36:25;83.88;;;50.72;;
5379;SDS011;2713;42.680;23.310;2024-01-15T07:38:52;97.18;;;51.63;;
5379;SDS011;2713;42.680;23.310;2024-01-15T07:41:19;99.55;;;53.17;;
5379;SDS011;2713;42.680;23.310;2024-01-15T07:43:45;89.75;;;49.28;;
5379;SDS011;2713;42.680;23.310;2024-01-15T07:46:14;90.82;;;51.85;;
5379;SDS011;2713;42.680;23.310;2024-01-15T07:48:40;85.70;;;50.50;;
5379;SDS011;2713;42.680;23.310;2024-01-15T07:51:07;86.85;;;48.47;;
5379;SDS011;2713;42.680;23.310;2024-01-15T07:53:34;80.03;;;48.53;;
5379;SDS011;2713;42.680;23.310;2024-01-15T07:56:06;89.38;;;48.88;;
5379;SDS011;2713;42.680;23.310;2024-01-15T07:58:37;75.10;;;43.90;;
5379;SDS011;2713;42.680;23.310;2024-01-15T08:01:04;72.75;;;44.50;;
5379;SDS011;2713;42.680;23.310;2024-01-15T08:03:33;70.68;;;43.00;;
5379;SDS011;2713;42.680;23.310;2024-01-15T08:05:59;70.47;;;41.58;;
5379;SDS011;2713;42.680;23.310;2024-01-15T08:08:26;78.07;;;43.95;;
5379;SDS011;2713;42.680;23.310;2024-01-15T08:10:53;85.45;;;47.17;;
5379;SDS011;2713;42.680;23.310;2024-01-15T08:13:20;86.88;;;47.13;;
5379;SDS011;2713;42.680;23.310;2024-01-15T08:15:47;83.63;;;45.97;;
5379;SDS011;2713;42.680;23.310;2024-01-15T08:18:13;69.78;;;38.45;;
5379;SDS011;2713;42.680;23.310;2024-01-15T08:20:42;57.88;;;35.35;;
5379;SDS011;2713;42.680;23.310;2024-01-15T08:23:08;55.88;;;33.95;;
5379;SDS011;2713;42.680;23.310;2024-01-15T08:25:35;56.00;;;34.20;;
5379;SDS011;2713;42.680;23.310;2024-01-15T08:28:02;54.95;;;33.38;;
5379;SDS011;2713;42.680;23.310;2024-01-15T08:30:29;65.13;;;35.83;;
5379;SDS011;2713;42.680;23.310;2024-01-15T08:32:56;56.42;;;34.70;;
5379;SDS011;2713;42.680;23.310;2024-01-15T08:35:24;57.15;;;33.25;;
5379;SDS011;2713;42.680;23.310;2024-01-15T08:37:55;49.13;;;30.83;;
5379;SDS011;2713;42.680;23.310;2024-01-15T08:40:31;51.72;;;31.92;;
5379;SDS011;2713;42.680;23.310;2024-01-15T08:43:00;55.78;;;33.15;;
5379;SDS011;2713;42.680;23.310;2024-01-15T08:45:35;56.30;;;34.35;;
5379;SDS011;2713;42.680;23.310;2024-01-15T08:48:02;61.42;;;31.88;;
5379;SDS011;2713;42.680;23.310;2024-01-15T08:50:31;51.40;;;31.23;;
5379;SDS011;2713;42.680;23.310;2024-01-15T08:52:59;59.00;;;34.97;;
5379;SDS011;2713;42.680;23.310;2024-01-15T08:55:25;63.35;;;35.78;;
5379;SDS011;2713;42.680;23.310;2024-01-15T08:57:52;56.63;;;34.80;;
5379;SDS011;2713;42.680;23.310;2024-01-15T09:00:18;63.00;;;33.90;;
5379;SDS011;2713;42.680;23.310;2024-01-15T09:02:45;40.63;;;27.33;;
5379;SDS011;2713;42.680;23.310;2024-01-15T09:05:12;46.88;;;31.10;;
5379;SDS011;2713;42.680;23.310;2024-01-15T09:07:39;54.95;;;29.77;;
5379;SDS011;2713;42.680;23.310;2024-01-15T09:10:07;50.92;;;30.85;;
5379;SDS011;2713;42.680;23.310;2024-01-15T09:12:35;50.10;;;30.02;;
5379;SDS011;2713;42.680;23.310;2024-01-15T09:15:01;50.75;;;30.65;;
5379;SDS011;2713;42.680;23.310;2024-01-15T09:17:29;51.35;;;30.27;;
5379;SDS011;2713;42.680;23.310;2024-01-15T09:19:56;45.45;;;28.65;;
5379;SDS011;2713;42.680;23.310;2024-01-15T09:22:23;49.08;;;29.33;;
5379;SDS011;2713;42.680;23.310;2024-01-15T09:24:49;42.35;;;26.38;;
5379;SDS011;2713;42.680;23.310;2024-01-15T09:27:18;38.25;;;23.70;;
5379;SDS011;2713;42.680;23.310;2024-01-15T09:29:44;36.05;;;22.67;;
5379;SDS011;2713;42.680;23.310;2024-01-15T09:32:11;43.40;;;24.70;;
5379;SDS011;2713;42.680;23.310;2024-01-15T09:34:38;49.85;;;27.08;;
5379;SDS011;2713;42.680;23.310;2024-01-15T09:37:06;60.13;;;32.50;;
5379;SDS011;2713;42.680;23.310;2024-01-15T09:39:33;71.68;;;41.13;;
5379;SDS011;2713;42.680;23.310;2024-01-15T09:42:00;98.05;;;50.05;;
5379;SDS011;2713;42.680;23.310;2024-01-15T09:44:29;98.22;;;50.97;;
5379;SDS011;2713;42.680;23.310;2024-01-15T09:46:57;92.15;;;53.25;;
5379;SDS011;2713;42.680;23.310;2024-01-15T09:49:24;115.80;;;60.30;;
5379;SDS011;2713;42.680;23.310;2024-01-15T09:51:51;109.82;;;59.60;;
5379;SDS011;2713;42.680;23.310;2024-01-15T09:54:17;115.38;;;60.30;;
5379;SDS011;2713;42.680;23.310;2024-01-15T09:56:45;112.93;;;60.58;;
5379;SDS011;2713;42.680;23.310;2024-01-15T09:59:13;128.05;;;63.67;;
5379;SDS011;2713;42.680;23.310;2024-01-15T10:01:43;114.82;;;62.60;;
5379;SDS011;2713;42.680;23.310;2024-01-15T10:04:12;119.93;;;65.63;;
5379;SDS011;2713;42.680;23.310;2024-01-15T10:06:40;119.57;;;68.57;;
5379;SDS011;2713;42.680;23.310;2024-01-15T10:09:11;119.60;;;63.35;;
5379;SDS011;2713;42.680;23.310;2024-01-15T10:11:39;118.28;;;66.10;;
5379;SDS011;2713;42.680;23.310;2024-01-15T10:14:06;106.90;;;59.08;;
5379;SDS011;2713;42.680;23.310;2024-01-15T10:16:34;83.15;;;50.50;;
5379;SDS011;2713;42.680;23.310;2024-01-15T10:19:02;90.50;;;53.85;;
5379;SDS011;2713;42.680;23.310;2024-01-15T10:21:29;88.60;;;49.17;;
5379;SDS011;2713;42.680;23.310;2024-01-15T10:24:00;78.75;;;45.08;;
5379;SDS011;2713;42.680;23.310;2024-01-15T10:26:28;79.75;;;48.75;;
5379;SDS011;2713;42.680;23.310;2024-01-15T10:28:55;77.80;;;45.05;;
5379;SDS011;2713;42.680;23.310;2024-01-15T10:31:22;58.47;;;36.35;;
5379;SDS011;2713;42.680;23.310;2024-01-15T10:33:48;62.10;;;39.08;;
5379;SDS011;2713;42.680;23.310;2024-01-15T10:36:17;68.88;;;39.17;;
5379;SDS011;2713;42.680;23.310;2024-01-15T10:38:44;59.65;;;38.20;;
5379;SDS011;2713;42.680;23.310;2024-01-15T10:41:11;64.72;;;37.13;;
5379;SDS011;2713;42.680;23.310;2024-01-15T10:43:38;51.05;;;31.52;;
5379;SDS011;2713;42.680;23.310;2024-01-15T10:46:06;47.10;;;29.80;;
5379;SDS011;2713;42.680;23.310;2024-01-15T10:48:33;44.28;;;28.90;;
5379;SDS011;2713;42.680;23.310;2024-01-15T10:51:01;53.10;;;31.83;;
5379;SDS011;2713;42.680;23.310;2024-01-15T10:53:35;47.55;;;29.60;;
5379;SDS011;2713;42.680;23.310;2024-01-15T10:56:04;50.05;;;31.92;;
5379;SDS011;2713;42.680;23.310;2024-01-15T10:58:32;48.47;;;31.05;;
5379;SDS011;2713;42.680;23.310;2024-01-15T11:01:00;39.33;;;26.95;;
5379;SDS011;2713;42.680;23.310;2024-01-15T11:03:27;47.13;;;27.58;;
5379;SDS011;2713;42.680;23.310;2024-01-15T11:05:54;43.30;;;28.70;;
5379;SDS011;2713;42.680;23.310;2024-01-15T11:08:21;49.10;;;28.50;;
5379;SDS011;2713;42.680;23.310;2024-01-15T11:10:52;44.05;;;24.80;;
5379;SDS011;2713;42.680;23.310;2024-01-15T11:13:20;39.33;;;22.52;;
5379;SDS011;2713;42.680;23.310;2024-01-15T11:16:00;36.70;;;23.23;;
5379;SDS011;2713;42.680;23.310;2024-01-15T11:18:28;42.03;;;25.60;;
5379;SDS011;2713;42.680;23.310;2024-01-15T11:23:49;42.33;;;25.92;;
5379;SDS011;2713;42.680;23.310;2024-01-15T11:26:28;38.95;;;24.90;;
5379;SDS011;2713;42.680;23.310;2024-01-15T11:28:56;36.30;;;24.40;;
5379;SDS011;2713;42.680;23.310;2024-01-15T11:31:28;37.22;;;21.98;;
5379;SDS011;2713;42.680;23.310;2024-01-15T11:33:55;31.65;;;21.15;;
5379;SDS011;2713;42.680;23.310;2024-01-15T11:36:35;29.35;;;18.70;;
5379;SDS011;2713;42.680;23.310;2024-01-15T11:39:41;33.20;;;20.30;;
5379;SDS011;2713;42.680;23.310;2024-01-15T11:42:13;32.85;;;21.50;;
5379;SDS011;2713;42.680;23.310;2024-01-15T11:44:40;31.03;;;20.53;;
5379;SDS011;2713;42.680;23.310;2024-01-15T11:47:08;27.83;;;18.73;;
5379;SDS011;2713;42.680;23.310;2024-01-15T11:49:58;29.97;;;19.60;;
5379;SDS011;2713;42.680;23.310;2024-01-15T11:52:29;26.08;;;17.48;;
5379;SDS011;2713;42.680;23.310;2024-01-15T11:55:00;23.83;;;16.25;;
5379;SDS011;2713;42.680;23.310;2024-01-15T11:57:33;23.80;;;15.17;;
5379;SDS011;2713;42.680;23.310;2024-01-15T12:00:10;21.93;;;14.30;;
5379;SDS011;2713;42.680;23.310;2024-01-15T12:02:39;23.92;;;14.75;;
5379;SDS011;2713;42.680;23.310;2024-01-15T12:05:06;23.25;;;15.32;;
5379;SDS011;2713;42.680;23.310;2024-01-15T12:07:34;32.43;;;18.00;;
5379;SDS011;2713;42.680;23.310;2024-01-15T12:10:01;27.20;;;17.60;;
5379;SDS011;2713;42.680;23.310;2024-01-15T12:12:31;25.35;;;16.90;;
5379;SDS011;2713;42.680;23.310;2024-01-15T12:15:10;28.75;;;15.93;;
5379;SDS011;2713;42.680;23.310;2024-01-15T12:17:37;32.07;;;18.17;;
5379;SDS011;2713;42.680;23.310;2024-01-15T12:20:04;28.80;;;17.67;;
5379;SDS011;2713;42.680;23.310;2024-01-15T12:22:32;27.37;;;16.17;;
5379;SDS011;2713;42.680;23.310;2024-01-15T12:24:59;24.70;;;16.70;;
5379;SDS011;2713;42.680;23.310;2024-01-15T12:27:26;30.63;;;18.20;;
5379;SDS011;2713;42.680;23.310;2024-01-15T12:29:54;38.03;;;19.03;;
5379;SDS011;2713;42.680;23.310;2024-01-15T12:32:21;27.00;;;17.87;;
5379;SDS011;2713;42.680;23.310;2024-01-15T12:34:48;29.45;;;18.65;;
5379;SDS011;2713;42.680;23.310;2024-01-15T12:37:17;32.50;;;21.07;;
5379;SDS011;2713;42.680;23.310;2024-01-15T12:39:44;36.83;;;20.10;;
5379;SDS011;2713;42.680;23.310;2024-01-15T12:42:11;34.37;;;19.90;;
5379;SDS011;2713;42.680;23.310;2024-01-15T12:44:38;32.67;;;21.20;;
5379;SDS011;2713;42.680;23.310;2024-01-15T12:47:08;38.60;;;21.40;;
5379;SDS011;2713;42.680;23.310;2024-01-15T12:49:35;35.17;;;20.67;;
5379;SDS011;2713;42.680;23.310;2024-01-15T12:52:02;31.40;;;19.73;;
5379;SDS011;2713;42.680;23.310;2024-01-15T12:54:29;64.80;;;40.00;;
5379;SDS011;2713;42.680;23.310;2024-01-15T12:56:56;38.90;;;23.90;;
5379;SDS011;2713;42.680;23.310;2024-01-15T12:59:23;31.63;;;21.33;;
5379;SDS011;2713;42.680;23.310;2024-01-15T13:01:50;32.77;;;20.53;;
5379;SDS011;2713;42.680;23.310;2024-01-15T13:04:22;33.60;;;20.83;;
5379;SDS011;2713;42.680;23.310;2024-01-15T13:06:49;28.03;;;19.33;;
5379;SDS011;2713;42.680;23.310;2024-01-15T13:09:17;36.00;;;21.07;;
5379;SDS011;2713;42.680;23.310;2024-01-15T13:11:44;31.57;;;19.90;;
5379;SDS011;2713;42.680;23.310;2024-01-15T13:14:11;39.80;;;22.43;;
5379;SDS011;2713;42.680;23.310;2024-01-15T13:16:38;39.50;;;21.53;;
5379;SDS011;2713;42.680;23.310;2024-01-15T13:19:06;38.55;;;20.27;;
5379;SDS011;2713;42.680;23.310;2024-01-15T13:21:35;40.63;;;21.50;;
5379;SDS011;2713;42.680;23.310;2024-01-15T13:24:03;34.00;;;21.13;;
5379;SDS011;2713;42.680;23.310;2024-01-15T13:26:31;40.63;;;20.63;;
5379;SDS011;2713;42.680;23.310;2024-01-15T13:28:58;35.10;;;21.07;;
5379;SDS011;2713;42.680;23.310;2024-01-15T13:31:25;36.83;;;21.10;;
5379;SDS011;2713;42.680;23.310;2024-01-15T13:33:52;37.50;;;21.90;;
5379;SDS011;2713;42.680;23.310;2024-01-15T13:36:20;40.90;;;22.17;;
5379;SDS011;2713;42.680;23.310;2024-01-15T13:38:49;35.77;;;21.53;;
5379;SDS011;2713;42.680;23.310;2024-01-15T13:41:17;34.50;;;22.07;;
5379;SDS011;2713;42.680;23.310;2024-01-15T13:43:45;37.53;;;21.07;;
5379;SDS011;2713;42.680;23.310;2024-01-15T13:46:12;43.63;;;22.97;;
5379;SDS011;2713;42.680;23.310;2024-01-15T13:48:39;41.00;;;22.30;;
5379;SDS011;2713;42.680;23.310;2024-01-15T13:51:05;35.73;;;23.20;;
5379;SDS011;2713;42.680;23.310;2024-01-15T13:53:32;36.57;;;22.47;;
5379;SDS011;2713;42.680;23.310;2024-01-15T13:58:46;31.53;;;20.63;;
5379;SDS011;2713;42.680;23.310;2024-01-15T14:01:15;37.63;;;21.13;;
5379;SDS011;2713;42.680;23.310;2024-01-15T14:03:42;36.83;;;22.40;;
5379;SDS011;2713;42.680;23.310;2024-01-15T14:06:09;37.50;;;22.90;;
5379;SDS011;2713;42.680;23.310;2024-01-15T14:08:36;36.87;;;23.80;;
5379;SDS011;2713;42.680;23.310;2024-01-15T14:11:04;33.73;;;21.00;;
5379;SDS011;2713;42.680;23.310;2024-01-15T14:13:33;28.47;;;20.30;;
5379;SDS011;2713;42.680;23.310;2024-01-15T14:16:00;31.83;;;20.60;;
5379;SDS011;2713;42.680;23.310;2024-01-15T14:18:27;33.90;;;21.23;;
5379;SDS011;2713;42.680;23.310;2024-01-15T14:20:54;34.73;;;20.63;;
5379;SDS011;2713;42.680;23.310;2024-01-15T14:23:20;39.63;;;22.93;;
5379;SDS011;2713;42.680;23.310;2024-01-15T14:25:47;32.93;;;21.97;;
5379;SDS011;2713;42.680;23.310;2024-01-15T14:28:14;40.13;;;22.33;;
5379;SDS011;2713;42.680;23.310;2024-01-15T14:30:42;58.27;;;30.23;;
5379;SDS011;2713;42.680;23.310;2024-01-15T14:33:09;44.23;;;25.40;;
5379;SDS011;2713;42.680;23.310;2024-01-15T14:35:36;40.20;;;22.93;;
5379;SDS011;2713;42.680;23.310;2024-01-15T14:38:03;36.00;;;22.07;;
5379;SDS011;2713;42.680;23.310;2024-01-15T14:40:30;46.20;;;23.30;;
5379;SDS011;2713;42.680;23.310;2024-01-15T14:42:56;35.23;;;24.00;;
5379;SDS011;2713;42.680;23.310;2024-01-15T14:45:23;48.87;;;23.83;;
5379;SDS011;2713;42.680;23.310;2024-01-15T14:47:53;34.73;;;21.90;;
5379;SDS011;2713;42.680;23.310;2024-01-15T14:50:22;37.83;;;22.40;;